Time;durP1;ratioP1;P1;durP2;ratioP2;P2;SDS_P1;SDS_P2;PMS_P1;PMS_P2;Temp;Humidity;BMP_temperature;BMP_pressure;BME280_temperature;BME280_humidity;BME280_pressure;Samples;Min_cycle;Max_cycle;Signal;HPM_P1;HPM_P2
2021/12/12 00:00:03;;;;;;;20.67;5.93;;;;;;;11.90;89.87;98402.22;3158772;27;20079;-70
2021/12/12 00:01:40;;;;;;;23.63;6.47;;;;;;;11.86;89.69;98395.53;3155731;28;20062;-69
2021/12/12 00:03:21;;;;;;;21.13;6.10;;;;;;;11.86;89.61;98388.56;3156223;27;20074;-70
2021/12/12 00:04:55;;;;;;;18.15;6.47;;;;;;;11.88;89.71;98384.06;3157685;28;20388;-70
2021/12/12 00:06:32;;;;;;;17.48;6.38;;;;;;;11.93;89.58;98399.38;3160592;28;20451;-70
2021/12/12 00:08:04;;;;;;;22.38;7.50;;;;;;;11.91;89.63;98417.75;3159521;27;20052;-69
2021/12/12 00:09:41;;;;;;;18.48;7.40;;;;;;;11.91;89.39;98422.97;3158357;28;20062;-68
2021/12/12 00:11:16;;;;;;;20.67;7.95;;;;;;;11.92;89.41;98393.34;3153117;28;20059;-70
2021/12/12 00:12:56;;;;;;;22.90;6.85;;;;;;;11.89;89.16;98359.66;3156121;28;20428;-70
2021/12/12 00:14:30;;;;;;;22.83;8.15;;;;;;;11.84;89.73;98348.69;3154305;28;20131;-69
2021/12/12 00:16:03;;;;;;;29.17;9.43;;;;;;;11.49;89.82;98292.13;3155937;28;20711;-69
2021/12/12 00:17:36;;;;;;;27.35;8.57;;;;;;;11.75;90.24;98336.31;3159433;28;20401;-70
2021/12/12 00:19:08;;;;;;;19.83;7.68;;;;;;;11.70;90.31;98328.00;3159428;28;20546;-70
2021/12/12 00:20:43;;;;;;;17.67;6.47;;;;;;;11.67;90.51;98321.22;3158012;28;20834;-70
2021/12/12 00:22:20;;;;;;;25.83;7.20;;;;;;;11.66;90.70;98293.50;3157446;28;20089;-70
2021/12/12 00:23:52;;;;;;;31.85;7.70;;;;;;;11.64;90.90;98274.50;3159375;27;20283;-70
2021/12/12 00:25:25;;;;;;;21.40;7.18;;;;;;;11.61;91.37;98251.28;3157615;28;20109;-70
2021/12/12 00:26:58;;;;;;;27.38;8.20;;;;;;;11.50;91.43;98223.38;3159286;27;20116;-69
2021/12/12 00:28:30;;;;;;;20.42;7.97;;;;;;;11.59;91.31;98269.66;3157081;28;20047;-70
2021/12/12 00:30:03;;;;;;;24.42;7.35;;;;;;;11.51;91.26;98235.50;3154210;28;20162;-70
2021/12/12 00:31:35;;;;;;;27.45;8.32;;;;;;;11.55;91.25;98257.78;3157672;28;20058;-70
2021/12/12 00:33:08;;;;;;;23.40;7.53;;;;;;;11.59;91.42;98280.09;3160689;27;20067;-70
2021/12/12 00:34:44;;;;;;;30.98;7.28;;;;;;;11.51;91.54;98266.78;3159640;28;20663;-70
2021/12/12 00:36:20;;;;;;;20.85;7.18;;;;;;;11.64;91.14;98282.34;3157468;28;20055;-70
2021/12/12 00:37:58;;;;;;;21.88;7.38;;;;;;;11.66;90.92;98282.25;3159693;28;20273;-69
2021/12/12 00:39:32;;;;;;;23.17;6.55;;;;;;;11.63;91.13;98279.84;3156721;28;20077;-70
2021/12/12 00:41:08;;;;;;;20.67;6.88;;;;;;;11.59;91.20;98285.31;3157216;28;20557;-70
2021/12/12 00:42:41;;;;;;;21.05;6.68;;;;;;;11.63;91.03;98313.75;3160445;28;20112;-70
2021/12/12 00:44:15;;;;;;;21.88;6.45;;;;;;;11.39;90.92;98278.09;3157586;28;20048;-70
2021/12/12 00:45:48;;;;;;;19.23;6.05;;;;;;;11.68;90.84;98333.31;3158761;28;20138;-69
2021/12/12 00:47:21;;;;;;;20.63;6.30;;;;;;;11.71;90.54;98347.91;3159123;27;20417;-70
2021/12/12 00:48:55;;;;;;;23.17;6.55;;;;;;;11.71;90.35;98353.97;3159343;28;20457;-69
2021/12/12 00:50:30;;;;;;;24.85;6.35;;;;;;;11.75;90.50;98365.00;3158891;28;20617;-69
2021/12/12 00:52:05;;;;;;;20.23;5.35;;;;;;;11.61;89.98;98345.97;3157987;28;20051;-69
2021/12/12 00:53:39;;;;;;;21.73;7.22;;;;;;;11.74;90.15;98371.16;3160414;28;20055;-70
2021/12/12 00:55:11;;;;;;;;;;;;;;;11.52;90.12;98375.31;3160401;27;20597;-70
2021/12/12 00:56:44;;;;;;;14.48;5.78;;;;;;;11.55;90.95;98354.22;3159555;28;19988;-70
2021/12/12 00:58:19;;;;;;;20.27;6.45;;;;;;;11.52;90.13;98354.47;3158520;28;20075;-69
2021/12/12 00:59:51;;;;;;;24.35;8.18;;;;;;;11.64;90.26;98393.63;3158110;28;20121;-69
2021/12/12 01:01:28;;;;;;;21.45;7.75;;;;;;;11.66;90.15;98396.97;3157391;28;20139;-70
2021/12/12 01:03:00;;;;;;;19.42;7.28;;;;;;;11.64;90.01;98393.63;3157546;28;20096;-69
2021/12/12 01:04:36;;;;;;;20.85;7.25;;;;;;;11.59;89.79;98394.81;3153337;28;20047;-70
2021/12/12 01:06:11;;;;;;;19.23;7.35;;;;;;;11.48;89.89;98366.06;3153661;28;20063;-70
2021/12/12 01:07:47;;;;;;;18.88;7.35;;;;;;;11.56;90.04;98370.72;3158795;28;20531;-70
2021/12/12 01:09:22;;;;;;;26.42;8.73;;;;;;;11.55;89.77;98388.13;3164230;28;20047;-70
2021/12/12 01:10:58;;;;;;;18.00;6.78;;;;;;;11.51;89.82;98344.97;3166828;28;20047;-70
2021/12/12 01:12:32;;;;;;;21.55;6.15;;;;;;;11.48;90.14;98367.84;3167504;28;20059;-70
2021/12/12 01:14:06;;;;;;;15.95;5.25;;;;;;;11.46;90.03;98364.50;3167840;28;20108;-70
2021/12/12 01:15:41;;;;;;;13.18;4.38;;;;;;;10.90;89.95;98276.41;3167218;28;20048;-70
2021/12/12 01:17:17;;;;;;;7.20;1.88;;;;;;;11.38;89.99;98352.81;3168572;28;20440;-70
2021/12/12 01:18:52;;;;;;;6.45;2.03;;;;;;;11.36;90.34;98372.97;3166004;28;20120;-70
2021/12/12 01:20:29;;;;;;;17.02;2.13;;;;;;;11.31;90.10;98377.69;3164702;28;20531;-70
2021/12/12 01:22:05;;;;;;;8.52;1.77;;;;;;;11.36;90.28;98395.59;3166985;28;20048;-71
2021/12/12 01:23:41;;;;;;;7.10;1.25;;;;;;;11.41;89.94;98423.94;3167937;28;20193;-70
2021/12/12 01:25:18;;;;;;;4.80;1.45;;;;;;;11.42;89.91;98425.59;3167290;28;20568;-70
2021/12/12 01:26:50;;;;;;;5.32;1.38;;;;;;;11.43;89.74;98416.84;3166758;28;20421;-70
2021/12/12 01:28:26;;;;;;;4.53;1.17;;;;;;;11.46;89.36;98412.25;3168852;28;20096;-70
2021/12/12 01:29:58;;;;;;;2.60;0.80;;;;;;;11.21;88.76;98374.06;3167701;28;20094;-69
2021/12/12 01:31:35;;;;;;;5.20;1.00;;;;;;;11.50;88.30;98418.91;3168283;28;20051;-70
2021/12/12 01:33:09;;;;;;;5.78;1.40;;;;;;;11.50;87.64;98420.69;3167853;28;20055;-70
2021/12/12 01:34:43;;;;;;;6.13;1.45;;;;;;;11.42;87.67;98404.75;3167765;28;20466;-70
2021/12/12 01:36:24;;;;;;;2.50;0.98;;;;;;;11.55;87.24;98434.22;3169032;28;20504;-70
2021/12/12 01:39:53;;;;;;;3.17;0.95;;;;;;;11.53;86.48;98421.28;3164975;28;20047;-70
2021/12/12 01:41:30;;;;;;;1.05;0.40;;;;;;;11.45;85.44;98399.34;3170925;27;20056;-69
2021/12/12 01:43:08;;;;;;;0.43;0.30;;;;;;;11.53;84.77;98412.63;3169764;28;20047;-70
2021/12/12 01:44:46;;;;;;;2.03;0.20;;;;;;;11.19;83.57;98346.47;3170634;27;20624;-69
2021/12/12 01:46:22;;;;;;;1.67;0.20;;;;;;;11.56;82.42;98404.59;3168903;28;20086;-70
2021/12/12 01:47:57;;;;;;;0.90;0.20;;;;;;;11.54;81.61;98415.16;3171242;28;20056;-71
2021/12/12 01:49:31;;;;;;;0.35;0.20;;;;;;;11.49;80.82;98404.22;3167584;28;20059;-70
2021/12/12 01:51:06;;;;;;;1.00;0.30;;;;;;;11.54;80.36;98404.72;3169735;28;20039;-70
2021/12/12 01:52:39;;;;;;;1.20;0.25;;;;;;;11.49;79.60;98398.16;3171404;27;20047;-71
2021/12/12 01:54:14;;;;;;;0.80;0.20;;;;;;;11.60;78.78;98424.31;3168235;28;20897;-69
2021/12/12 01:55:54;;;;;;;0.55;0.22;;;;;;;11.57;77.46;98403.69;3170993;28;20059;-69
2021/12/12 01:57:30;;;;;;;1.33;0.30;;;;;;;11.51;76.86;98404.13;3168992;28;20557;-68
2021/12/12 01:59:05;;;;;;;0.73;0.30;;;;;;;11.65;76.97;98426.56;3168204;28;20092;-69
2021/12/12 02:00:40;;;;;;;1.45;0.32;;;;;;;11.61;76.64;98425.97;3170961;27;20047;-69
2021/12/12 02:02:16;;;;;;;1.17;0.60;;;;;;;11.56;76.76;98418.47;3167268;28;20104;-69
2021/12/12 02:03:52;;;;;;;3.38;0.30;;;;;;;11.57;76.91;98425.38;3170735;28;20070;-68
2021/12/12 02:05:26;;;;;;;0.82;0.50;;;;;;;11.41;77.23;98414.34;3168981;28;20589;-69
2021/12/12 02:06:59;;;;;;;3.05;0.60;;;;;;;11.52;77.43;98443.09;3164291;28;20066;-69
2021/12/12 02:08:37;;;;;;;1.95;0.50;;;;;;;11.48;77.63;98457.31;3168840;28;20108;-69
2021/12/12 02:10:13;;;;;;;1.65;0.40;;;;;;;11.44;78.09;98465.44;3170842;28;20047;-69
2021/12/12 02:11:47;;;;;;;2.42;0.60;;;;;;;10.82;77.97;98372.44;3171889;27;20047;-69
2021/12/12 02:13:21;;;;;;;2.13;0.52;;;;;;;11.27;78.36;98459.63;3168707;28;20489;-69
2021/12/12 02:14:56;;;;;;;4.18;0.45;;;;;;;11.14;78.22;98446.59;3168584;28;20048;-69
2021/12/12 02:16:28;;;;;;;1.52;0.32;;;;;;;11.21;77.44;98460.06;3170059;27;20050;-70
2021/12/12 02:18:01;;;;;;;1.70;0.50;;;;;;;11.21;77.12;98459.19;3169609;28;20047;-68
2021/12/12 02:19:41;;;;;;;0.75;0.28;;;;;;;11.23;76.64;98457.34;3171892;27;20120;-69
2021/12/12 02:21:21;;;;;;;0.57;0.20;;;;;;;11.24;76.23;98457.25;3167805;28;20743;-69
2021/12/12 02:23:05;;;;;;;1.13;0.43;;;;;;;11.23;76.26;98452.13;3170255;28;20043;-69
2021/12/12 02:35:46;;;;;;;1.70;0.52;;;;;;;10.85;76.48;98438.16;3170271;27;20056;-69
2021/12/12 02:37:18;;;;;;;2.25;0.60;;;;;;;10.92;76.53;98443.81;3168564;28;20134;-70
2021/12/12 02:38:53;;;;;;;1.98;0.70;;;;;;;10.89;76.50;98433.59;3170896;28;20056;-70
2021/12/12 02:40:28;;;;;;;3.22;0.88;;;;;;;10.41;76.25;98365.69;3168573;28;20122;-69
2021/12/12 02:42:03;;;;;;;1.30;0.45;;;;;;;10.87;76.62;98445.91;3169640;28;20044;-70
2021/12/12 02:43:40;;;;;;;1.42;0.50;;;;;;;10.88;76.20;98456.22;3169553;28;20116;-70
2021/12/12 02:45:15;;;;;;;2.35;0.43;;;;;;;10.81;76.10;98444.53;3167277;28;20065;-70
2021/12/12 02:46:49;;;;;;;2.58;0.30;;;;;;;10.27;76.08;98364.03;3171006;27;20150;-70
2021/12/12 02:48:21;;;;;;;1.73;0.40;;;;;;;10.80;75.45;98449.88;3168751;28;20096;-70
2021/12/12 02:50:07;;;;;;;2.13;0.45;;;;;;;10.79;75.49;98450.78;3169395;28;20084;-70
2021/12/12 02:51:40;;;;;;;1.50;0.40;;;;;;;10.74;76.01;98447.66;3168671;28;20106;-70
2021/12/12 02:53:15;;;;;;;3.85;0.65;;;;;;;10.74;75.31;98458.91;3164921;28;20044;-70
2021/12/12 02:54:49;;;;;;;2.25;0.63;;;;;;;10.72;75.86;98446.94;3169926;28;20051;-69
2021/12/12 02:56:25;;;;;;;3.13;0.70;;;;;;;10.67;75.82;98461.06;3167821;28;20109;-70
2021/12/12 02:58:00;;;;;;;1.35;0.68;;;;;;;10.62;75.52;98460.56;3170660;28;20048;-70
2021/12/12 02:59:32;;;;;;;2.55;0.55;;;;;;;10.60;75.89;98465.03;3169232;27;20052;-70
2021/12/12 03:01:09;;;;;;;2.13;0.63;;;;;;;10.57;76.09;98469.63;3168493;28;20051;-70
2021/12/12 03:02:45;;;;;;;1.77;0.60;;;;;;;10.52;76.12;98480.31;3167910;28;20044;-70
2021/12/12 03:04:18;;;;;;;2.58;0.90;;;;;;;10.46;76.06;98480.72;3166960;28;20055;-70
2021/12/12 03:05:50;;;;;;;1.38;0.57;;;;;;;10.34;76.09;98473.72;3169116;28;20438;-69
2021/12/12 03:07:23;;;;;;;2.78;0.98;;;;;;;10.33;76.20;98483.31;3169060;27;20439;-70
2021/12/12 03:09:00;;;;;;;1.27;0.40;;;;;;;10.30;76.25;98495.69;3168626;28;20047;-70
2021/12/12 03:10:38;;;;;;;3.25;0.75;;;;;;;10.29;76.37;98494.00;3170874;27;20131;-70
2021/12/12 03:12:12;;;;;;;1.75;0.90;;;;;;;10.27;76.46;98499.31;3169457;28;20370;-70
2021/12/12 03:13:45;;;;;;;2.70;0.85;;;;;;;10.23;76.61;98498.66;3169715;28;20101;-70
2021/12/12 03:15:20;;;;;;;1.60;0.68;;;;;;;10.20;76.80;98492.78;3167796;28;20043;-70
2021/12/12 03:16:52;;;;;;;1.88;0.50;;;;;;;10.20;76.61;98504.06;3167977;28;20120;-70
2021/12/12 03:18:29;;;;;;;3.88;1.00;;;;;;;10.21;76.64;98507.50;3167905;28;20503;-70
2021/12/12 03:20:07;;;;;;;2.20;0.60;;;;;;;10.15;76.83;98495.72;3165793;28;20051;-70
2021/12/12 03:21:42;;;;;;;3.13;1.10;;;;;;;10.14;76.94;98514.84;3163628;28;20196;-70
2021/12/12 03:23:19;;;;;;;4.05;1.10;;;;;;;10.13;76.92;98514.94;3168930;27;20447;-69
2021/12/12 03:24:51;;;;;;;1.63;1.00;;;;;;;10.05;76.81;98512.00;3168717;27;20044;-70
2021/12/12 03:26:26;;;;;;;3.33;0.93;;;;;;;10.15;76.87;98515.69;3170409;27;20425;-70
2021/12/12 03:27:58;;;;;;;1.75;0.75;;;;;;;10.16;76.59;98519.94;3168453;28;20108;-69
2021/12/12 03:29:30;;;;;;;1.85;0.80;;;;;;;10.16;76.41;98514.75;3170531;27;20541;-70
2021/12/12 03:31:08;;;;;;;3.10;0.95;;;;;;;10.05;76.77;98499.81;3167564;28;20047;-70
2021/12/12 03:32:41;;;;;;;4.80;1.42;;;;;;;10.13;76.81;98520.16;3167301;28;20108;-70
2021/12/12 03:34:16;;;;;;;7.43;1.90;;;;;;;10.08;76.48;98514.41;3168408;28;20036;-69
2021/12/12 03:35:49;;;;;;;6.80;1.55;;;;;;;10.02;77.04;98511.25;3165304;28;20048;-69
2021/12/12 03:37:24;;;;;;;4.95;1.67;;;;;;;10.05;76.89;98536.22;3170260;28;20619;-69
2021/12/12 03:39:08;;;;;;;2.92;1.33;;;;;;;10.08;77.22;98537.81;3167574;28;20051;-69
2021/12/12 03:40:42;;;;;;;4.25;1.25;;;;;;;9.92;77.18;98535.34;3164509;28;20509;-69
2021/12/12 03:42:25;;;;;;;3.75;1.83;;;;;;;9.96;77.23;98558.44;3169551;27;20075;-69
2021/12/12 03:44:00;;;;;;;7.75;1.85;;;;;;;9.90;77.67;98558.00;3165772;28;20124;-70
2021/12/12 03:45:33;;;;;;;5.63;1.60;;;;;;;9.40;77.73;98479.59;3169714;28;20047;-70
2021/12/12 03:47:10;;;;;;;3.78;1.45;;;;;;;9.73;77.93;98535.63;3166046;28;20409;-70
2021/12/12 03:48:44;;;;;;;7.60;1.70;;;;;;;9.78;77.92;98552.63;3164533;28;20047;-69
2021/12/12 03:50:23;;;;;;;;;;;;;;;9.53;78.43;98552.47;3169693;27;20066;-69
2021/12/12 03:51:56;;;;;;;2.97;1.27;;;;;;;9.52;79.12;98550.78;3167922;28;19923;-70
2021/12/12 03:53:29;;;;;;;7.35;1.60;;;;;;;9.53;79.40;98547.28;3169530;27;20043;-70
2021/12/12 03:55:01;;;;;;;5.25;1.98;;;;;;;9.44;79.43;98529.66;3167237;28;20052;-69
2021/12/12 03:56:34;;;;;;;4.97;1.77;;;;;;;9.58;79.41;98566.00;3169709;28;20104;-69
2021/12/12 03:58:08;;;;;;;6.00;1.75;;;;;;;9.59;79.63;98577.25;3167368;28;20515;-70
2021/12/12 03:59:40;;;;;;;4.88;1.55;;;;;;;9.55;79.48;98585.25;3165355;28;20048;-70
2021/12/12 04:01:16;;;;;;;7.38;1.83;;;;;;;9.53;79.26;98591.47;3160366;27;20047;-69
2021/12/12 04:02:48;;;;;;;3.63;2.20;;;;;;;9.34;79.88;98568.31;3166536;28;20059;-69
2021/12/12 04:04:23;;;;;;;9.32;2.03;;;;;;;9.41;80.17;98582.63;3164676;28;20071;-69
2021/12/12 04:05:59;;;;;;;5.72;2.30;;;;;;;9.39;80.31;98575.84;3168440;27;20047;-69
2021/12/12 04:07:32;;;;;;;4.93;2.10;;;;;;;9.33;80.85;98569.25;3167814;28;20055;-70
2021/12/12 04:09:07;;;;;;;6.60;2.13;;;;;;;9.31;80.77;98569.34;3168044;28;20051;-70
2021/12/12 04:10:39;;;;;;;8.00;2.03;;;;;;;9.27;80.92;98575.66;3167771;28;20039;-70
2021/12/12 04:12:15;;;;;;;5.35;2.05;;;;;;;9.24;80.81;98575.84;3169780;28;20063;-70
2021/12/12 04:13:51;;;;;;;9.45;2.33;;;;;;;9.29;80.95;98583.38;3166822;28;20051;-70
2021/12/12 04:15:23;;;;;;;7.28;2.42;;;;;;;9.24;81.18;98583.63;3168574;28;20058;-70
2021/12/12 04:17:00;;;;;;;6.18;2.40;;;;;;;9.25;80.93;98587.88;3168597;28;20047;-70
2021/12/12 04:18:31;;;;;;;11.95;3.15;;;;;;;9.20;81.11;98589.09;3167082;28;20043;-70
2021/12/12 04:20:08;;;;;;;4.63;2.58;;;;;;;9.19;80.88;98583.06;3169503;28;20440;-70
2021/12/12 04:21:42;;;;;;;7.95;3.08;;;;;;;9.14;81.03;98585.09;3165996;28;20044;-70
2021/12/12 04:23:19;;;;;;;7.45;3.00;;;;;;;9.14;81.36;98595.50;3166115;28;20444;-70
2021/12/12 04:24:55;;;;;;;7.65;3.53;;;;;;;9.13;81.48;98609.38;3161129;28;20109;-71
2021/12/12 04:26:30;;;;;;;9.93;4.85;;;;;;;9.08;81.26;98603.63;3167882;28;20434;-71
2021/12/12 04:28:02;;;;;;;9.23;4.43;;;;;;;9.04;81.35;98605.56;3172944;27;20050;-70
2021/12/12 04:29:37;;;;;;;5.93;3.80;;;;;;;9.01;81.47;98604.91;3166355;28;20048;-70
2021/12/12 04:31:09;;;;;;;12.88;4.55;;;;;;;8.98;81.74;98603.31;3168509;28;20054;-70
2021/12/12 04:32:43;;;;;;;9.23;4.22;;;;;;;8.92;81.67;98590.69;3168125;28;20048;-70
2021/12/12 04:34:16;;;;;;;8.00;3.92;;;;;;;8.90;81.69;98584.75;3167516;28;20444;-70
2021/12/12 04:35:48;;;;;;;7.68;3.83;;;;;;;8.86;82.05;98575.47;3168827;28;20498;-71
2021/12/12 04:37:22;;;;;;;20.40;6.30;;;;;;;8.88;81.81;98579.66;3166865;28;20054;-71
2021/12/12 04:38:59;;;;;;;22.42;6.95;;;;;;;8.44;82.00;98512.13;3165504;28;20500;-70
2021/12/12 04:40:33;;;;;;;18.48;6.05;;;;;;;8.86;82.12;98597.06;3168402;28;20039;-70
2021/12/12 04:42:08;;;;;;;13.38;5.38;;;;;;;8.85;82.12;98595.41;3164096;28;20129;-70
2021/12/12 04:43:42;;;;;;;8.60;4.57;;;;;;;8.79;82.50;98593.16;3167805;28;20054;-70
2021/12/12 04:45:25;;;;;;;8.63;5.47;;;;;;;8.75;82.29;98593.41;3167090;28;20050;-71
2021/12/12 04:50:59;;;;;;;16.88;5.30;;;;;;;8.49;83.49;98615.63;3168768;28;19919;-70
2021/12/12 04:52:38;;;;;;;12.65;5.35;;;;;;;8.53;83.57;98624.94;3167918;28;20047;-72
2021/12/12 04:54:17;;;;;;;12.30;5.05;;;;;;;8.54;83.52;98644.78;3168770;28;20051;-71
2021/12/12 04:55:55;;;;;;;12.15;5.65;;;;;;;8.56;83.42;98654.16;3167183;28;20075;-71
2021/12/12 04:57:31;;;;;;;11.57;4.43;;;;;;;8.53;83.61;98658.69;3165070;28;20504;-69
2021/12/12 04:59:08;;;;;;;14.40;4.65;;;;;;;8.39;83.71;98647.28;3167056;28;20261;-70
2021/12/12 05:00:48;;;;;;;11.55;4.32;;;;;;;8.42;84.01;98660.09;3166890;28;20051;-70
2021/12/12 05:02:25;;;;;;;13.05;5.60;;;;;;;8.50;83.91;98667.47;3161475;28;20048;-70
2021/12/12 05:04:01;;;;;;;14.20;5.18;;;;;;;8.52;83.88;98669.97;3169329;28;20616;-70
2021/12/12 05:05:41;;;;;;;11.88;5.20;;;;;;;8.49;84.07;98680.50;3165889;28;20044;-69
2021/12/12 05:07:16;;;;;;;13.57;5.25;;;;;;;8.50;84.40;98682.19;3169716;28;20047;-70
2021/12/12 05:08:53;;;;;;;11.75;4.80;;;;;;;8.49;84.29;98680.50;3166324;28;20051;-70
2021/12/12 05:10:30;;;;;;;14.48;6.05;;;;;;;8.46;84.93;98685.88;3165913;28;20120;-70
2021/12/12 05:12:06;;;;;;;13.20;5.88;;;;;;;8.48;85.41;98679.69;3166684;28;20096;-70
2021/12/12 05:13:42;;;;;;;12.60;6.38;;;;;;;8.48;85.47;98689.22;3164269;28;20112;-70
2021/12/12 05:15:18;;;;;;;12.63;5.60;;;;;;;8.50;85.22;98692.56;3170946;28;20055;-69
2021/12/12 05:16:58;;;;;;;17.30;6.45;;;;;;;8.43;85.17;98682.53;3168610;28;20569;-69
2021/12/12 05:18:32;;;;;;;14.27;5.88;;;;;;;8.46;85.14;98691.91;3171671;28;20493;-69
2021/12/12 05:20:10;;;;;;;13.35;6.03;;;;;;;8.49;85.18;98696.06;3168107;28;20469;-68
2021/12/12 05:21:46;;;;;;;13.85;5.88;;;;;;;8.42;85.11;98680.84;3170985;28;20092;-68
2021/12/12 05:23:22;;;;;;;11.45;5.75;;;;;;;8.47;85.28;98679.78;3169826;28;20039;-69
2021/12/12 05:24:54;;;;;;;11.80;5.97;;;;;;;8.45;85.17;98690.22;3166170;28;20044;-68
2021/12/12 05:26:30;;;;;;;9.88;5.22;;;;;;;8.44;85.26;98706.72;3170780;27;20431;-70
2021/12/12 05:28:04;;;;;;;12.15;6.28;;;;;;;8.42;85.35;98716.34;3169131;28;20520;-70
2021/12/12 05:29:40;;;;;;;18.45;8.65;;;;;;;8.38;85.44;98714.78;3169554;28;20059;-70
2021/12/12 05:31:13;;;;;;;15.35;7.95;;;;;;;8.34;85.45;98702.91;3170091;28;20052;-70
2021/12/12 05:32:48;;;;;;;16.38;6.78;;;;;;;7.98;86.14;98631.31;3170706;28;20047;-70
2021/12/12 05:34:27;;;;;;;17.83;8.25;;;;;;;8.26;86.94;98694.72;3171249;28;20070;-69
2021/12/12 05:36:00;;;;;;;19.92;7.97;;;;;;;8.04;87.03;98690.63;3167893;28;20084;-70
2021/12/12 05:37:33;;;;;;;17.83;7.20;;;;;;;8.25;86.95;98726.72;3170285;28;20047;-69
2021/12/12 05:39:06;;;;;;;16.35;7.13;;;;;;;8.20;87.08;98703.66;3171005;27;20108;-69
2021/12/12 05:40:40;;;;;;;15.60;7.70;;;;;;;8.25;87.15;98711.16;3166188;28;20485;-69
2021/12/12 05:42:13;;;;;;;13.30;6.13;;;;;;;8.27;87.17;98717.94;3170896;28;20052;-71
2021/12/12 05:43:45;;;;;;;;;;;;;;;8.06;87.26;98722.50;3168828;28;20335;-71
2021/12/12 05:45:28;;;;;;;12.15;6.30;;;;;;;8.10;87.75;98720.59;3159842;28;19924;-69
2021/12/12 05:47:03;;;;;;;14.48;7.40;;;;;;;8.13;87.46;98718.69;3164779;27;20065;-72
2021/12/12 05:48:37;;;;;;;17.10;7.70;;;;;;;8.24;87.24;98733.69;3169766;28;20070;-72
2021/12/12 05:50:11;;;;;;;14.43;8.50;;;;;;;8.27;87.11;98741.28;3168502;27;20048;-69
2021/12/12 05:51:43;;;;;;;13.88;8.50;;;;;;;8.28;86.67;98745.59;3165380;28;20055;-71
2021/12/12 05:53:16;;;;;;;13.18;7.55;;;;;;;7.66;86.91;98652.03;3163547;28;20501;-71
2021/12/12 05:54:50;;;;;;;14.15;8.07;;;;;;;8.28;86.90;98750.78;3164349;28;20048;-71
2021/12/12 05:56:23;;;;;;;12.38;7.82;;;;;;;8.24;86.93;98746.66;3162633;28;20048;-70
2021/12/12 05:57:56;;;;;;;14.80;7.28;;;;;;;8.28;86.67;98760.28;3164252;27;20051;-70
2021/12/12 05:59:29;;;;;;;12.80;7.03;;;;;;;8.25;86.46;98750.06;3165218;28;20088;-69
2021/12/12 06:01:03;;;;;;;;;;;;;;;8.07;86.76;98760.47;3165262;28;20056;-69
2021/12/12 06:02:35;;;;;;;17.33;8.00;;;;;;;8.14;87.15;98761.03;3164949;28;19989;-71
2021/12/12 06:04:09;;;;;;;16.53;9.30;;;;;;;8.20;87.34;98766.72;3164968;28;20120;-70
2021/12/12 06:05:41;;;;;;;;;;;;;;;8.02;86.98;98769.44;3166104;28;20819;-71
2021/12/12 06:07:19;;;;;;;17.33;8.00;;;;;;;7.79;87.41;98722.19;3165441;28;19928;-70
2021/12/12 06:08:51;;;;;;;14.20;7.80;;;;;;;7.56;87.08;98673.28;3166983;28;20393;-70
2021/12/12 06:10:28;;;;;;;20.05;9.50;;;;;;;8.13;86.91;98765.38;3162612;28;20047;-70
2021/12/12 06:12:04;;;;;;;20.00;10.15;;;;;;;8.23;87.10;98783.06;3166289;28;20465;-71
2021/12/12 06:13:38;;;;;;;32.05;13.57;;;;;;;8.26;87.18;98798.44;3164052;28;20047;-70
2021/12/12 06:15:16;;;;;;;21.58;11.88;;;;;;;8.25;86.79;98792.41;3162644;28;20047;-69
2021/12/12 06:16:49;;;;;;;17.77;9.10;;;;;;;8.01;86.94;98752.19;3162737;28;20078;-69
2021/12/12 06:18:23;;;;;;;20.85;8.65;;;;;;;8.24;87.14;98790.75;3166766;28;20112;-67
2021/12/12 06:19:57;;;;;;;18.10;8.50;;;;;;;8.25;87.41;98813.16;3163983;28;20052;-69
2021/12/12 06:21:29;;;;;;;16.95;7.95;;;;;;;7.83;87.28;98734.06;3164796;27;20052;-69
2021/12/12 06:23:01;;;;;;;15.07;9.00;;;;;;;8.30;87.43;98805.97;3163274;28;20439;-69
2021/12/12 06:24:34;;;;;;;19.13;10.73;;;;;;;8.12;87.92;98755.06;3174644;27;20057;-69
2021/12/12 06:26:07;;;;;;;21.88;10.98;;;;;;;8.62;88.08;98811.28;3165812;27;20575;-68
2021/12/12 06:27:40;;;;;;;18.23;8.63;;;;;;;8.76;88.42;98815.75;3164291;28;20104;-73
2021/12/12 06:29:12;;;;;;;12.85;6.93;;;;;;;8.77;88.44;98802.69;3163628;28;20064;-74
2021/12/12 06:30:44;;;;;;;21.30;11.48;;;;;;;9.00;88.53;98824.81;3167004;28;20630;-70
2021/12/12 06:32:17;;;;;;;25.50;13.85;;;;;;;9.08;88.50;98819.19;3161380;28;20464;-72
2021/12/12 06:33:50;;;;;;;29.67;15.65;;;;;;;9.24;88.59;98827.81;3161133;27;20053;-69
2021/12/12 06:35:23;;;;;;;25.83;14.23;;;;;;;9.40;88.45;98837.34;3164640;28;20064;-70
2021/12/12 06:36:55;;;;;;;;;;;;;;;9.31;88.35;98839.53;3170870;28;20143;-69
2021/12/12 06:38:28;;;;;;;20.02;11.75;;;;;;;9.44;88.96;98828.47;3168939;28;20331;-67
2021/12/12 06:40:00;;;;;;;18.00;9.35;;;;;;;9.70;88.83;98842.59;3169022;28;20165;-68
2021/12/12 06:41:33;;;;;;;18.90;12.40;;;;;;;9.87;88.28;98847.66;3167369;28;20044;-67
2021/12/12 06:43:08;;;;;;;13.52;8.80;;;;;;;10.06;88.46;98849.19;3166699;28;20052;-68
2021/12/12 06:44:42;;;;;;;16.95;8.40;;;;;;;10.20;87.86;98854.44;3169888;27;20055;-65
2021/12/12 06:46:14;;;;;;;14.07;8.13;;;;;;;10.06;87.81;98811.03;3169647;27;20047;-69
2021/12/12 06:47:47;;;;;;;13.82;7.65;;;;;;;10.41;87.57;98854.97;3170095;28;20061;-66
2021/12/12 06:49:19;;;;;;;16.10;8.30;;;;;;;10.48;87.20;98858.88;3166489;28;20483;-67
2021/12/12 06:50:56;;;;;;;16.92;8.23;;;;;;;10.60;86.81;98857.31;3162655;28;20052;-67
2021/12/12 06:52:29;;;;;;;13.80;8.60;;;;;;;10.61;86.28;98854.59;3163946;28;20502;-67
2021/12/12 06:54:02;;;;;;;12.63;7.90;;;;;;;10.65;85.74;98860.50;3163602;28;20048;-67
2021/12/12 06:55:39;;;;;;;26.27;14.48;;;;;;;10.74;85.75;98867.75;3166855;28;20044;-65
2021/12/12 06:57:15;;;;;;;18.95;9.02;;;;;;;10.82;85.32;98875.06;3164672;28;20524;-67
2021/12/12 06:58:48;;;;;;;18.52;10.43;;;;;;;10.78;85.18;98850.97;3163830;28;20055;-67
2021/12/12 07:00:22;;;;;;;;;;;;;;;10.68;84.91;98855.94;3167230;28;20051;-67
2021/12/12 07:01:55;;;;;;;15.15;9.60;;;;;;;10.87;85.22;98860.84;3165815;28;19931;-67
2021/12/12 07:03:28;;;;;;;20.88;12.15;;;;;;;11.02;84.17;98873.84;3163789;28;20150;-67
2021/12/12 07:05:00;;;;;;;21.98;11.75;;;;;;;11.08;83.79;98871.69;3163774;27;20457;-68
2021/12/12 07:06:33;;;;;;;20.40;11.80;;;;;;;10.83;83.35;98816.88;3162882;28;20054;-67
2021/12/12 07:08:06;;;;;;;15.63;10.20;;;;;;;11.18;83.40;98863.31;3163563;28;20050;-68
2021/12/12 07:09:39;;;;;;;24.97;11.57;;;;;;;11.27;83.08;98863.59;3167104;28;20427;-67
2021/12/12 07:11:11;;;;;;;18.73;11.82;;;;;;;11.21;83.34;98856.16;3166212;28;20618;-69
2021/12/12 07:12:44;;;;;;;19.83;10.55;;;;;;;11.35;83.16;98868.31;3161092;28;20062;-69
2021/12/12 07:14:17;;;;;;;16.55;9.23;;;;;;;11.46;82.63;98881.50;3163222;28;20203;-69
2021/12/12 07:15:51;;;;;;;14.55;9.20;;;;;;;11.50;82.28;98885.56;3169939;28;20043;-67
2021/12/12 07:17:24;;;;;;;13.75;8.35;;;;;;;11.54;82.31;98879.25;3164666;28;20108;-67
2021/12/12 07:18:56;;;;;;;14.75;8.80;;;;;;;11.53;81.95;98882.75;3161191;28;20744;-67
2021/12/12 07:20:28;;;;;;;14.02;8.23;;;;;;;11.55;81.66;98883.50;3163028;28;20048;-67
2021/12/12 07:22:02;;;;;;;16.10;8.25;;;;;;;11.53;81.23;98887.97;3167240;28;20051;-68
2021/12/12 07:23:35;;;;;;;17.08;7.95;;;;;;;11.57;81.25;98883.44;3163311;28;20036;-67
2021/12/12 07:25:09;;;;;;;19.92;10.25;;;;;;;11.61;81.24;98890.94;3163459;28;20052;-67
2021/12/12 07:26:40;;;;;;;18.80;10.60;;;;;;;11.63;81.11;98880.44;3169218;28;20112;-67
2021/12/12 07:28:13;;;;;;;20.98;12.48;;;;;;;11.67;80.53;98884.50;3165444;28;20435;-67
2021/12/12 07:29:45;;;;;;;20.63;12.00;;;;;;;11.72;80.56;98886.84;3163675;28;20585;-67
2021/12/12 07:31:20;;;;;;;18.30;10.40;;;;;;;11.75;80.15;98881.41;3155693;28;20059;-67
2021/12/12 07:32:52;;;;;;;17.02;9.90;;;;;;;11.80;80.03;98897.59;3157851;28;20056;-66
2021/12/12 07:34:25;;;;;;;22.27;9.88;;;;;;;11.84;79.73;98899.06;3152460;28;20062;-65
2021/12/12 07:36:00;;;;;;;14.52;8.85;;;;;;;11.92;79.55;98903.81;3150125;28;20074;-65
2021/12/12 07:37:35;;;;;;;14.00;8.80;;;;;;;12.00;79.31;98910.22;3157456;28;20047;-65
2021/12/12 07:39:10;;;;;;;19.70;9.90;;;;;;;12.04;78.73;98919.53;3147782;27;20056;-64
2021/12/12 07:40:47;;;;;;;16.67;8.98;;;;;;;12.09;78.64;98927.03;3150654;28;20105;-64
2021/12/12 07:42:21;;;;;;;16.70;7.75;;;;;;;12.12;78.28;98926.00;3152772;28;21581;-64